createdAt,value
2023-01-29T00:02:27.061Z,32.37
2023-01-29T00:04:58.908Z,30.60
2023-01-29T00:07:27.108Z,29.20
2023-01-29T00:09:55.411Z,31.83
2023-01-29T00:12:24.546Z,29.63
2023-01-29T00:14:52.315Z,30.97
2023-01-29T00:17:20.123Z,30.27
2023-01-29T00:19:47.953Z,28.30
2023-01-29T00:22:15.680Z,30.17
2023-01-29T00:24:44.265Z,29.33
2023-01-29T00:27:11.984Z,31.33
2023-01-29T00:29:41.655Z,28.30
2023-01-29T00:32:09.479Z,26.67
2023-01-29T00:34:38.140Z,28.50
2023-01-29T00:37:08.840Z,27.10
2023-01-29T00:39:47.481Z,26.57
2023-01-29T00:42:34.502Z,28.33
2023-01-29T00:45:04.672Z,26.53
2023-01-29T00:47:35.549Z,28.20
2023-01-29T00:50:06.858Z,27.77
2023-01-29T00:52:36.416Z,28.47
2023-01-29T00:55:06.920Z,29.03
2023-01-29T00:57:36.855Z,27.20
2023-01-29T01:00:10.225Z,26.93
2023-01-29T01:02:56.783Z,26.40
2023-01-29T01:05:25.117Z,25.63
2023-01-29T01:07:57.411Z,25.53
2023-01-29T01:10:30.307Z,24.80
2023-01-29T01:13:02.388Z,27.60
2023-01-29T01:15:36.535Z,25.80
2023-01-29T01:18:05.207Z,25.73
2023-01-29T01:20:35.707Z,26.43
2023-01-29T01:23:04.316Z,24.70
2023-01-29T01:25:32.312Z,26.23
2023-01-29T01:28:03.204Z,28.27
2023-01-29T01:30:33.052Z,24.07
2023-01-29T01:33:01.655Z,23.03
2023-01-29T01:35:29.756Z,26.00
2023-01-29T01:37:57.615Z,25.17
2023-01-29T01:40:26.763Z,24.77
2023-01-29T01:42:57.245Z,25.07
2023-01-29T01:45:29.880Z,25.87
2023-01-29T01:48:06.646Z,25.83
2023-01-29T01:50:42.638Z,27.53
2023-01-29T01:53:16.909Z,24.60
2023-01-29T01:55:52.577Z,26.40
2023-01-29T01:58:29.340Z,26.10
2023-01-29T02:00:57.895Z,28.07
2023-01-29T02:03:50.020Z,30.40
2023-01-29T02:06:36.543Z,29.30
2023-01-29T02:09:32.005Z,29.97
2023-01-29T02:12:00.823Z,29.43
2023-01-29T02:14:28.891Z,30.30
2023-01-29T02:16:56.834Z,28.97
2023-01-29T02:19:45.823Z,29.37
2023-01-29T02:22:41.944Z,28.30
2023-01-29T02:25:42.796Z,30.38
2023-01-29T02:28:25.676Z,30.70
2023-01-29T02:31:06.228Z,30.07
2023-01-29T02:33:52.037Z,29.47
2023-01-29T02:36:34.834Z,29.98
2023-01-29T02:39:17.077Z,29.60
2023-01-29T02:41:56.034Z,30.47
2023-01-29T02:44:37.401Z,31.27
2023-01-29T02:47:18.874Z,31.53
2023-01-29T02:49:55.601Z,32.33
2023-01-29T02:52:33.000Z,30.90
2023-01-29T02:55:12.544Z,30.13
2023-01-29T02:57:44.492Z,30.83
2023-01-29T03:00:21.598Z,30.63
2023-01-29T03:02:59.223Z,31.57
2023-01-29T03:05:32.993Z,33.73
2023-01-29T03:08:10.450Z,30.67
2023-01-29T03:10:45.840Z,30.20
2023-01-29T03:13:21.610Z,29.55
2023-01-29T03:16:01.645Z,30.85
2023-01-29T03:18:54.178Z,28.50
2023-01-29T03:21:49.555Z,32.13
2023-01-29T03:24:45.083Z,28.50
2023-01-29T03:27:35.385Z,32.97
2023-01-29T03:30:28.125Z,28.50
2023-01-29T03:33:12.218Z,33.03
2023-01-29T03:35:48.609Z,29.40
2023-01-29T03:38:17.121Z,33.83
2023-01-29T03:40:54.968Z,29.57
2023-01-29T03:43:33.909Z,29.60
2023-01-29T03:46:11.719Z,31.90
2023-01-29T03:48:54.376Z,31.27
2023-01-29T03:51:30.011Z,32.10
2023-01-29T03:54:09.790Z,31.17
2023-01-29T03:56:57.062Z,31.47
2023-01-29T03:59:39.388Z,39.80
2023-01-29T04:02:27.607Z,31.07
2023-01-29T04:05:10.237Z,32.33
2023-01-29T04:08:00.760Z,30.43
2023-01-29T04:10:30.679Z,32.30
2023-01-29T04:13:04.444Z,33.97
2023-01-29T04:15:43.437Z,28.77
2023-01-29T04:18:11.854Z,30.23
2023-01-29T04:21:01.590Z,28.67
2023-01-29T04:23:30.153Z,31.47
2023-01-29T04:26:24.456Z,30.77
2023-01-29T04:29:16.210Z,33.50
2023-01-29T04:31:59.958Z,33.43
2023-01-29T04:34:35.315Z,32.07
2023-01-29T04:37:22.376Z,30.88
2023-01-29T04:40:00.111Z,31.90
2023-01-29T04:42:37.240Z,31.73
2023-01-29T04:45:20.739Z,33.60
2023-01-29T04:48:01.148Z,33.40
2023-01-29T04:50:38.153Z,31.80
2023-01-29T04:53:18.598Z,34.20
2023-01-29T04:55:51.260Z,34.87
2023-01-29T04:58:32.002Z,33.80
2023-01-29T05:01:04.973Z,34.50
2023-01-29T05:03:36.932Z,36.13
2023-01-29T05:06:08.000Z,35.17
2023-01-29T05:08:39.775Z,35.10
2023-01-29T05:11:08.343Z,35.53
2023-01-29T05:13:41.721Z,31.70
2023-01-29T05:16:19.137Z,36.53
2023-01-29T05:18:47.826Z,36.20
2023-01-29T05:21:15.762Z,35.20
2023-01-29T05:23:53.191Z,35.10
2023-01-29T05:26:40.634Z,36.60
2023-01-29T05:29:08.641Z,36.73
2023-01-29T05:31:36.438Z,33.33
2023-01-29T05:34:04.206Z,38.43
2023-01-29T05:36:32.046Z,38.33
2023-01-29T05:39:01.225Z,36.93
2023-01-29T05:41:29.020Z,35.83
2023-01-29T05:43:57.069Z,33.37
2023-01-29T05:46:25.205Z,35.00
2023-01-29T05:48:53.316Z,32.00
2023-01-29T05:51:21.209Z,35.60
2023-01-29T05:53:49.091Z,34.13
2023-01-29T05:56:18.390Z,36.77
2023-01-29T05:58:46.345Z,32.63
2023-01-29T06:01:17.968Z,35.90
2023-01-29T06:03:46.521Z,33.53
2023-01-29T06:06:15.585Z,34.47
2023-01-29T06:08:43.625Z,34.73
2023-01-29T06:11:13.839Z,35.80
2023-01-29T06:13:43.081Z,33.87
2023-01-29T06:16:13.525Z,34.30
2023-01-29T06:18:42.064Z,33.27
2023-01-29T06:21:13.034Z,34.40
2023-01-29T06:23:41.345Z,35.17
2023-01-29T06:26:13.631Z,38.23
2023-01-29T06:28:45.078Z,39.03
2023-01-29T06:31:33.015Z,33.70
2023-01-29T06:34:00.675Z,34.20
2023-01-29T06:36:28.434Z,35.40
2023-01-29T06:38:56.244Z,34.33
2023-01-29T06:41:25.561Z,35.70
2023-01-29T06:43:54.886Z,35.00
2023-01-29T06:46:22.672Z,33.70
2023-01-29T06:48:50.596Z,31.33
2023-01-29T06:51:18.693Z,32.40
2023-01-29T06:53:46.980Z,36.87
2023-01-29T06:56:14.983Z,35.03
2023-01-29T06:58:43.698Z,33.70
2023-01-29T07:01:25.346Z,35.00
2023-01-29T07:04:02.958Z,32.97
2023-01-29T07:06:31.987Z,33.50
2023-01-29T07:09:00.308Z,33.73
2023-01-29T07:11:28.168Z,35.50
2023-01-29T07:13:56.132Z,35.73
2023-01-29T07:16:26.274Z,34.43
2023-01-29T07:18:54.594Z,34.23
2023-01-29T07:21:22.481Z,33.80
2023-01-29T07:23:50.544Z,34.57
2023-01-29T07:26:18.358Z,33.87
2023-01-29T07:28:46.387Z,34.97
2023-01-29T07:31:15.447Z,33.70
2023-01-29T07:33:45.298Z,38.03
2023-01-29T07:36:14.142Z,36.53
2023-01-29T07:38:42.053Z,35.00
2023-01-29T07:41:11.740Z,37.73
2023-01-29T07:43:39.590Z,37.73
2023-01-29T07:46:07.796Z,42.17
2023-01-29T07:48:36.468Z,37.20
2023-01-29T07:51:06.726Z,35.53
2023-01-29T07:53:34.612Z,36.70
2023-01-29T07:56:03.285Z,40.00
2023-01-29T07:58:31.215Z,37.77
2023-01-29T08:00:58.985Z,40.50
2023-01-29T08:03:26.847Z,37.70
2023-01-29T08:05:54.581Z,38.53
2023-01-29T08:08:23.760Z,38.70
2023-01-29T08:10:51.621Z,36.73
2023-01-29T08:13:19.460Z,36.67
2023-01-29T08:15:47.355Z,37.17
2023-01-29T08:18:15.537Z,39.33
2023-01-29T08:20:43.496Z,39.60
2023-01-29T08:23:14.974Z,37.23
2023-01-29T08:25:44.724Z,39.73
2023-01-29T08:28:12.651Z,38.53
2023-01-29T08:30:41.471Z,37.27
2023-01-29T08:33:09.632Z,39.00
2023-01-29T08:35:38.814Z,38.50
2023-01-29T08:38:06.662Z,39.10
2023-01-29T08:40:35.114Z,39.47
2023-01-29T08:43:09.484Z,36.50
2023-01-29T08:45:41.192Z,36.07
2023-01-29T08:48:10.261Z,39.37
2023-01-29T08:50:38.446Z,35.50
2023-01-29T08:53:08.759Z,33.50
2023-01-29T08:55:39.394Z,35.97
2023-01-29T08:58:12.330Z,35.33
2023-01-29T09:00:40.157Z,37.60
2023-01-29T09:03:08.268Z,34.80
2023-01-29T09:05:37.677Z,36.07
2023-01-29T09:08:06.777Z,32.27
2023-01-29T09:10:35.693Z,37.70
2023-01-29T09:13:04.786Z,34.57
2023-01-29T09:15:33.920Z,39.77
2023-01-29T09:18:04.327Z,37.53
2023-01-29T09:20:33.004Z,35.70
2023-01-29T09:23:05.367Z,40.23
2023-01-29T09:25:33.273Z,38.80
2023-01-29T09:28:01.243Z,38.57
2023-01-29T09:30:29.401Z,39.10
2023-01-29T09:33:00.926Z,36.93
2023-01-29T09:35:28.986Z,39.27
2023-01-29T09:37:57.115Z,40.37
2023-01-29T09:40:30.621Z,40.07
2023-01-29T09:43:04.406Z,40.07
2023-01-29T09:45:33.367Z,39.83
2023-01-29T09:48:05.744Z,40.37
2023-01-29T09:50:39.866Z,39.03
2023-01-29T09:53:19.987Z,38.10
2023-01-29T09:55:56.498Z,38.87
2023-01-29T09:58:31.295Z,36.03
2023-01-29T10:01:13.914Z,38.97
2023-01-29T10:04:19.380Z,40.37
2023-01-29T10:07:11.500Z,43.50
2023-01-29T10:10:08.245Z,41.90
2023-01-29T10:15:38.578Z,39.13
2023-01-29T10:18:41.502Z,41.33
2023-01-29T10:21:32.104Z,41.10
2023-01-29T10:24:17.993Z,39.90
2023-01-29T10:26:46.253Z,38.63
2023-01-29T10:29:19.643Z,42.57
2023-01-29T10:31:55.224Z,34.87
2023-01-29T10:34:33.298Z,40.88
2023-01-29T10:37:31.238Z,39.87
2023-01-29T10:40:00.934Z,44.70
2023-01-29T10:42:39.342Z,40.70
2023-01-29T10:45:21.230Z,39.33
2023-01-29T10:48:42.828Z,41.10
2023-01-29T10:51:28.673Z,39.87
2023-01-29T10:54:20.090Z,40.90
2023-01-29T10:57:06.916Z,40.37
2023-01-29T11:00:01.126Z,42.57
2023-01-29T11:02:29.217Z,42.73
2023-01-29T11:04:57.004Z,41.53
2023-01-29T11:07:27.683Z,43.70
2023-01-29T11:10:07.731Z,43.37
2023-01-29T11:12:38.891Z,43.67
2023-01-29T11:15:19.847Z,40.43
2023-01-29T11:18:11.446Z,41.17
2023-01-29T11:20:41.627Z,39.53
2023-01-29T11:23:27.298Z,40.40
2023-01-29T11:25:58.587Z,41.67
2023-01-29T11:28:41.150Z,40.63
2023-01-29T11:31:22.982Z,40.43
2023-01-29T11:34:01.113Z,36.73
2023-01-29T11:36:38.044Z,37.23
2023-01-29T11:39:17.871Z,39.43
2023-01-29T11:41:55.885Z,38.37
2023-01-29T11:44:31.172Z,40.50
2023-01-29T11:47:17.140Z,37.60
2023-01-29T11:49:49.748Z,37.10
2023-01-29T11:52:21.100Z,40.03
2023-01-29T11:54:55.192Z,37.77
2023-01-29T11:57:31.970Z,42.07
2023-01-29T12:00:05.070Z,38.33
2023-01-29T12:02:42.411Z,40.20
2023-01-29T12:05:17.151Z,40.33
2023-01-29T12:07:51.465Z,37.97
2023-01-29T12:10:35.453Z,32.30
2023-01-29T12:13:26.854Z,37.67
2023-01-29T12:16:15.581Z,35.70
2023-01-29T12:18:53.139Z,37.37
2023-01-29T12:21:33.439Z,34.80
2023-01-29T12:24:12.970Z,40.70
2023-01-29T12:26:51.952Z,37.93
2023-01-29T12:29:40.738Z,36.83
2023-01-29T12:32:26.431Z,37.93
2023-01-29T12:35:04.645Z,37.00
2023-01-29T12:37:45.305Z,35.53
2023-01-29T12:40:17.529Z,40.67
2023-01-29T12:42:50.418Z,41.00
2023-01-29T12:45:24.808Z,37.87
2023-01-29T12:47:57.646Z,39.83
2023-01-29T12:50:30.227Z,35.50
2023-01-29T12:53:07.427Z,35.27
2023-01-29T12:55:43.735Z,38.03
2023-01-29T12:58:16.688Z,36.80
2023-01-29T13:00:51.185Z,40.30
2023-01-29T13:03:27.244Z,35.90
2023-01-29T13:06:00.744Z,44.07
2023-01-29T13:08:37.312Z,35.43
2023-01-29T13:11:14.050Z,36.93
2023-01-29T13:13:54.137Z,39.33
2023-01-29T13:16:30.449Z,39.17
2023-01-29T13:19:03.480Z,37.23
2023-01-29T13:21:39.555Z,36.33
2023-01-29T13:24:16.346Z,38.40
2023-01-29T13:26:46.475Z,37.90
2023-01-29T13:29:25.099Z,37.57
2023-01-29T13:31:57.207Z,39.00
2023-01-29T13:34:31.601Z,39.53
2023-01-29T13:37:04.457Z,33.93
2023-01-29T13:39:37.607Z,37.73
2023-01-29T13:42:20.851Z,34.70
2023-01-29T13:44:51.890Z,39.70
2023-01-29T13:47:27.735Z,39.97
2023-01-29T13:52:37.219Z,43.33
2023-01-29T13:55:26.071Z,39.07
2023-01-29T13:57:56.555Z,41.30
2023-01-29T14:00:51.774Z,40.60
2023-01-29T14:04:05.787Z,38.83
2023-01-29T14:06:50.382Z,31.23
2023-01-29T14:10:03.297Z,38.87
2023-01-29T14:12:45.516Z,37.80
2023-01-29T14:15:28.760Z,41.77
2023-01-29T14:18:16.172Z,38.80
2023-01-29T14:21:02.198Z,33.43
2023-01-29T14:23:41.314Z,38.70
2023-01-29T14:26:33.046Z,38.33
2023-01-29T14:29:06.825Z,40.30
2023-01-29T14:31:43.898Z,44.17
2023-01-29T14:34:23.421Z,42.63
2023-01-29T14:36:56.220Z,42.50
2023-01-29T14:39:37.930Z,40.63
2023-01-29T14:42:24.551Z,38.53
2023-01-29T14:45:08.665Z,42.60
2023-01-29T14:48:34.986Z,43.43
2023-01-29T14:51:10.901Z,41.47
2023-01-29T14:54:02.428Z,36.03
2023-01-29T14:56:36.024Z,37.47
2023-01-29T14:59:18.915Z,45.70
2023-01-29T15:01:53.619Z,42.37
2023-01-29T15:04:27.449Z,44.27
2023-01-29T15:07:04.413Z,41.60
2023-01-29T15:09:45.645Z,39.37
2023-01-29T15:12:27.725Z,42.77
2023-01-29T15:15:10.171Z,42.87
2023-01-29T15:17:52.334Z,45.10
2023-01-29T15:20:29.944Z,45.80
2023-01-29T15:22:58.011Z,41.97
2023-01-29T15:25:34.730Z,46.63
2023-01-29T15:28:08.568Z,42.93
2023-01-29T15:30:38.023Z,45.67
2023-01-29T15:33:11.638Z,43.43
2023-01-29T15:35:42.301Z,50.37
2023-01-29T15:38:18.401Z,43.63
2023-01-29T15:40:57.797Z,45.07
2023-01-29T15:43:28.639Z,48.03
2023-01-29T15:46:01.640Z,47.00
2023-01-29T15:48:36.246Z,46.97
2023-01-29T15:51:07.832Z,45.70
2023-01-29T15:53:42.087Z,45.53
2023-01-29T15:56:15.892Z,36.97
2023-01-29T15:58:49.623Z,43.53
2023-01-29T16:01:18.187Z,45.53
2023-01-29T16:03:52.494Z,48.00
2023-01-29T16:06:22.310Z,46.77
2023-01-29T16:08:54.348Z,46.13
2023-01-29T16:11:24.452Z,46.93
2023-01-29T16:13:53.828Z,38.07
2023-01-29T16:16:26.194Z,45.60
2023-01-29T16:19:00.558Z,41.10
2023-01-29T16:21:34.071Z,43.07
2023-01-29T16:24:09.727Z,48.80
2023-01-29T16:26:46.611Z,45.97
2023-01-29T16:29:21.434Z,46.87
2023-01-29T16:31:54.836Z,45.90
2023-01-29T16:34:28.673Z,45.47
2023-01-29T16:36:58.204Z,52.00
2023-01-29T16:39:32.819Z,36.37
2023-01-29T16:42:23.537Z,46.27
2023-01-29T16:44:55.931Z,45.40
2023-01-29T16:47:30.616Z,47.83
2023-01-29T16:50:00.997Z,52.57
2023-01-29T16:52:32.586Z,51.27
2023-01-29T16:55:19.595Z,55.33
2023-01-29T16:57:54.254Z,50.27
2023-01-29T17:00:27.055Z,48.07
2023-01-29T17:03:01.869Z,48.57
2023-01-29T17:05:38.531Z,50.73
2023-01-29T17:08:08.009Z,40.13
2023-01-29T17:10:36.093Z,41.27
2023-01-29T17:13:09.125Z,50.90
2023-01-29T17:15:45.866Z,51.37
2023-01-29T17:18:19.569Z,49.37
2023-01-29T17:20:49.120Z,48.67
2023-01-29T17:23:17.223Z,49.47
2023-01-29T17:25:46.364Z,49.53
2023-01-29T17:28:17.393Z,49.27
2023-01-29T17:30:56.547Z,46.27
2023-01-29T17:33:33.815Z,51.40
2023-01-29T17:36:01.649Z,51.07
2023-01-29T17:38:29.541Z,44.03
2023-01-29T17:41:02.235Z,49.67
2023-01-29T17:43:31.492Z,50.23
2023-01-29T17:45:59.308Z,48.47
2023-01-29T17:48:29.988Z,50.17
2023-01-29T17:51:02.735Z,50.37
2023-01-29T17:53:45.417Z,47.53
2023-01-29T17:56:17.176Z,44.83
2023-01-29T17:58:46.614Z,43.87
2023-01-29T18:01:14.758Z,46.17
2023-01-29T18:03:42.683Z,41.43
2023-01-29T18:06:21.492Z,41.43
2023-01-29T18:08:49.689Z,43.57
2023-01-29T18:11:17.652Z,39.77
2023-01-29T18:13:47.451Z,45.50
2023-01-29T18:16:18.735Z,46.23
2023-01-29T18:18:46.849Z,43.83
2023-01-29T18:21:14.869Z,44.13
2023-01-29T18:23:43.017Z,42.70
2023-01-29T18:26:12.391Z,47.40
2023-01-29T18:28:43.350Z,44.90
2023-01-29T18:31:14.457Z,41.57
2023-01-29T18:33:42.598Z,46.33
2023-01-29T18:36:10.961Z,49.73
2023-01-29T18:38:39.093Z,56.73
2023-01-29T18:41:11.697Z,44.20
2023-01-29T18:43:41.389Z,53.73
2023-01-29T18:46:09.823Z,53.70
2023-01-29T18:48:41.566Z,59.67
2023-01-29T18:51:10.513Z,51.73
2023-01-29T18:53:38.504Z,53.27
2023-01-29T18:56:08.095Z,61.20
2023-01-29T18:58:37.195Z,52.17
2023-01-29T19:01:09.713Z,54.90
2023-01-29T19:03:41.207Z,53.83
2023-01-29T19:06:11.170Z,50.17
2023-01-29T19:08:40.780Z,49.40
2023-01-29T19:11:09.035Z,48.53
2023-01-29T19:13:38.006Z,49.93
2023-01-29T19:16:08.991Z,51.30
2023-01-29T19:18:37.319Z,42.50
2023-01-29T19:21:12.613Z,43.93
2023-01-29T19:23:42.260Z,50.22
2023-01-29T19:26:11.375Z,47.40
2023-01-29T19:28:39.755Z,43.07
2023-01-29T19:31:09.275Z,39.80
2023-01-29T19:33:37.334Z,38.70
2023-01-29T19:36:06.558Z,44.53
2023-01-29T19:38:38.624Z,37.27
2023-01-29T19:41:06.855Z,40.90
2023-01-29T19:43:34.982Z,46.77
2023-01-29T19:46:03.043Z,43.73
2023-01-29T19:48:30.987Z,34.60
2023-01-29T19:51:01.654Z,39.37
2023-01-29T19:53:31.551Z,39.77
2023-01-29T19:56:04.849Z,41.03
2023-01-29T19:58:34.134Z,41.53
2023-01-29T20:01:05.287Z,42.63
2023-01-29T20:03:38.079Z,42.03
2023-01-29T20:06:07.060Z,45.73
2023-01-29T20:08:35.886Z,43.63
2023-01-29T20:11:05.741Z,40.57
2023-01-29T20:13:34.029Z,41.17
2023-01-29T20:16:03.789Z,41.27
2023-01-29T20:18:32.602Z,45.83
2023-01-29T20:21:07.168Z,42.10
2023-01-29T20:23:38.480Z,40.73
2023-01-29T20:26:12.490Z,38.47
2023-01-29T20:28:41.798Z,41.53
2023-01-29T20:31:10.684Z,40.23
2023-01-29T20:33:40.374Z,40.83
2023-01-29T20:36:12.172Z,41.80
2023-01-29T20:38:41.021Z,40.03
2023-01-29T20:41:14.905Z,37.30
2023-01-29T20:43:44.274Z,41.90
2023-01-29T20:46:13.477Z,36.93
2023-01-29T20:48:42.136Z,38.03
2023-01-29T20:51:15.414Z,39.40
2023-01-29T20:53:45.808Z,31.53
2023-01-29T20:56:17.166Z,40.27
2023-01-29T20:58:46.879Z,35.13
2023-01-29T21:01:21.794Z,38.43
2023-01-29T21:03:49.869Z,40.33
2023-01-29T21:06:17.982Z,36.83
2023-01-29T21:08:46.124Z,37.87
2023-01-29T21:11:15.757Z,34.80
2023-01-29T21:13:43.950Z,36.47
2023-01-29T21:16:12.366Z,34.53
2023-01-29T21:18:40.455Z,34.70
2023-01-29T21:21:08.517Z,31.87
2023-01-29T21:23:36.547Z,36.83
2023-01-29T21:26:09.183Z,37.20
2023-01-29T21:28:38.976Z,37.03
2023-01-29T21:31:12.149Z,36.93
2023-01-29T21:33:41.003Z,36.33
2023-01-29T21:36:14.045Z,37.87
2023-01-29T21:38:42.514Z,36.43
2023-01-29T21:41:10.576Z,40.63
2023-01-29T21:43:40.061Z,41.43
2023-01-29T21:46:11.970Z,39.97
2023-01-29T21:48:40.538Z,36.17
2023-01-29T21:51:09.014Z,39.27
2023-01-29T21:53:37.286Z,39.10
2023-01-29T21:56:06.510Z,37.30
2023-01-29T21:58:34.531Z,35.93
2023-01-29T22:01:11.511Z,38.47
2023-01-29T22:03:51.895Z,40.53
2023-01-29T22:06:20.090Z,39.63
2023-01-29T22:08:49.693Z,40.63
2023-01-29T22:11:18.175Z,45.87
2023-01-29T22:13:46.871Z,41.50
2023-01-29T22:16:16.328Z,39.47
2023-01-29T22:18:44.783Z,42.40
2023-01-29T22:21:12.805Z,40.47
2023-01-29T22:23:41.318Z,36.17
2023-01-29T22:26:12.075Z,39.67
2023-01-29T22:28:40.500Z,40.23
2023-01-29T22:31:08.517Z,41.27
2023-01-29T22:33:37.951Z,40.47
2023-01-29T22:36:07.592Z,39.37
2023-01-29T22:38:35.726Z,35.00
2023-01-29T22:41:04.634Z,42.93
2023-01-29T22:43:32.711Z,39.90
2023-01-29T22:46:00.829Z,37.63
2023-01-29T22:48:30.530Z,39.77
2023-01-29T22:51:13.596Z,39.10
2023-01-29T22:53:44.347Z,39.63
2023-01-29T22:56:12.495Z,31.77
2023-01-29T22:58:41.135Z,37.23
2023-01-29T23:01:10.450Z,39.60
2023-01-29T23:03:38.468Z,38.17
2023-01-29T23:06:11.049Z,38.87
2023-01-29T23:08:39.388Z,33.07
2023-01-29T23:11:14.717Z,32.70
2023-01-29T23:13:44.901Z,36.75
2023-01-29T23:16:14.353Z,39.83
2023-01-29T23:18:43.263Z,37.33
2023-01-29T23:21:12.735Z,39.50
2023-01-29T23:23:41.151Z,37.50
2023-01-29T23:26:30.035Z,40.97
2023-01-29T23:28:59.492Z,41.77
2023-01-29T23:31:27.305Z,38.33
2023-01-29T23:33:55.746Z,39.37
2023-01-29T23:36:25.262Z,37.30
2023-01-29T23:38:53.290Z,42.27
2023-01-29T23:41:21.343Z,33.30
2023-01-29T23:43:50.047Z,41.53
2023-01-29T23:46:17.787Z,42.23
2023-01-29T23:48:45.580Z,37.93
2023-01-29T23:51:13.549Z,37.97
2023-01-29T23:53:42.900Z,45.10
2023-01-29T23:56:11.676Z,41.50
2023-01-29T23:58:39.800Z,42.20
